Scarborough, Canada
Current Conditions -  °F | °C
As of 5:00 PM on Tuesday 21 Oct 2014 (Local Time) from CYKZ Reporting Station
Rain Showers Rain Showers  
Wind Chill: 40°   Ceiling: 1200
Heat Index: 45°   Visibility: 12mi
Dew Point: 43°   Wind: 9mph
Humidity: 93%   Direction: 20°NNE
Pressure: 30.01"   Gusts: 17mph
Location:  43.77°N, 79.26°W
Report Text: CYKZ 212100Z 02008G15KT 12SM -SHRA OVC012 07/06 A3001 RMK SC8SLP166
Loading
Personal Weather Stations






























Interactive Weather Map
Tropical Storm Tracking
New forecast layout! Learn more

10-Day Weather Forecast

Advertisements
Track Severe Weather on mobile